Airfield :
LOGIN :

Register | Disclaimer

   EN    FR    IT 

 










Legend :    VFR   Marginal VFR   IFR   Intensive IFR   Very Intensive IFR
Visi :
Ceiling :
>= 8 km
>= 3000ft
5 to 8 km
1000 to 3000 ft
1500m to 5 km
500 to 1000 ft
800 to 1500m
200 to 500 ft
< 800m
< 200 ft
Symbols :   Thunderstorms  Fog  Heavy snow  Heavy precipitations  Wind > 20 kt
SIGMETs :     Misc.  Thunderstorms  Icing  Turbulence  Mountain Waves  Volcanic Ashes






- Airport Elevation : 376 ft


LHKE - Kecskemét

CURRENT METAR :
  • 210515Z 27004KT 0100 -FZDZ FZFG VV002 M01/M01 Q1045 R12/190094 NOSIG RMK RED

EXPIRED METARs :
  • 210445Z 26004KT 0100 FZFG VV002 M02/M02 Q1045 R12/190094 NOSIG RMK RED
  • 210415Z 28004KT 0100 FZFG VV002 M02/M02 Q1045 R12/190095 NOSIG RMK RED
  • 210345Z 26004KT 0100 FZFG VV002 M02/M02 Q1045 R12/190095 NOSIG RMK RED
  • 210315Z 29004KT 0100 FZFG VV002 M02/M02 Q1045 R12/190095 NOSIG RMK RED
  • 210245Z 25004KT 0100 FZFG VV002 M02/M02 Q1045 R12/190095 NOSIG RMK RED

TAF TAF LHKE
Valid from the 21 at 06:00 until the 21 at 15:00 UTC


210515Z 2106/2115 28004KT 0500 FZFG VV002
TEMPO 2106/2109 0150 FZFG -FZDZ VV001
BECMG 2109/2111 25006KT 1200 BR OVC004
TEMPO 2111/2115 2500 BR BKN007



MET'MAP, your aeronautical weather chart ! - Copyright ORBIFLY December 2007 - Disclaimer

ORBIFLY MET'MAP TEAM :

Programming & Development : Alexandra Zaïnal
Concept & original design : Baudouin d'Aumeries
Assistance for programming : Marc-Olivier Méhu
Technical & hardware support : Manuel Goepfert

Contact : metmap@orbifly.com




SOURCES & CREDITS :

   NOAA